createdAt,value
2018-04-30T00:00:42.549Z,43.89
2018-04-30T00:01:37.705Z,44.08
2018-04-30T00:02:37.588Z,44.27
2018-04-30T00:03:37.418Z,44.65
2018-04-30T00:04:37.338Z,44.65
2018-04-30T00:05:37.484Z,45.51
2018-04-30T00:06:37.434Z,45.51
2018-04-30T00:07:37.171Z,45.22
2018-04-30T00:08:37.161Z,45.20
2018-04-30T00:09:37.636Z,45.01
2018-04-30T00:10:37.164Z,45.10
2018-04-30T00:11:37.075Z,45.39
2018-04-30T00:12:37.020Z,45.10
2018-04-30T00:13:37.020Z,45.13
2018-04-30T00:14:36.903Z,45.58
2018-04-30T00:15:36.881Z,45.58
2018-04-30T00:16:36.881Z,45.51
2018-04-30T00:17:36.831Z,46.37
2018-04-30T00:18:36.866Z,46.92
2018-04-30T00:19:36.808Z,46.66
2018-04-30T00:20:36.728Z,46.47
2018-04-30T00:21:36.678Z,46.94
2018-04-30T00:22:36.649Z,47.42
2018-04-30T00:23:36.697Z,47.23
2018-04-30T00:24:36.607Z,47.78
2018-04-30T00:25:36.513Z,48.44
2018-04-30T00:26:36.492Z,48.35
2018-04-30T00:27:36.448Z,48.32
2018-04-30T00:28:36.490Z,47.85
2018-04-30T00:29:36.416Z,48.23
2018-04-30T00:30:36.415Z,48.52
2018-04-30T00:31:36.506Z,48.32
2018-04-30T00:32:36.323Z,48.42
2018-04-30T00:33:36.714Z,48.04
2018-04-30T00:34:36.300Z,48.04
2018-04-30T00:35:36.159Z,48.04
2018-04-30T00:36:36.206Z,48.80
2018-04-30T00:37:36.157Z,48.23
2018-04-30T00:38:36.137Z,48.23
2018-04-30T00:39:36.025Z,48.71
2018-04-30T00:40:36.087Z,48.99
2018-04-30T00:41:35.926Z,48.71
2018-04-30T00:42:35.918Z,48.80
2018-04-30T00:43:36.033Z,48.90
2018-04-30T00:44:35.877Z,49.37
2018-04-30T00:45:35.855Z,49.47
2018-04-30T00:46:35.816Z,49.47
2018-04-30T00:47:35.886Z,49.49
2018-04-30T00:48:35.761Z,49.95
2018-04-30T00:49:35.655Z,49.95
2018-04-30T00:50:35.704Z,50.13
2018-04-30T00:51:35.648Z,50.04
2018-04-30T00:52:35.626Z,50.13
2018-04-30T00:53:35.597Z,50.32
2018-04-30T00:54:35.541Z,50.23
2018-04-30T00:55:35.500Z,50.13
2018-04-30T00:56:35.399Z,50.04
2018-04-30T00:57:35.458Z,50.32
2018-04-30T00:58:35.420Z,50.13
2018-04-30T00:59:35.403Z,50.32
2018-04-30T01:00:35.451Z,50.23
2018-04-30T01:01:35.176Z,50.71
2018-04-30T01:02:35.162Z,50.42
2018-04-30T01:03:35.362Z,50.54
2018-04-30T01:04:35.142Z,50.90
2018-04-30T01:05:35.215Z,50.90
2018-04-30T01:06:35.250Z,50.90
2018-04-30T01:07:35.339Z,51.28
2018-04-30T01:08:35.389Z,51.47
2018-04-30T01:09:35.098Z,51.37
2018-04-30T01:10:34.964Z,51.37
2018-04-30T01:11:34.901Z,51.85
2018-04-30T01:12:34.926Z,51.95
2018-04-30T01:13:34.929Z,52.11
2018-04-30T01:14:34.903Z,52.01
2018-04-30T01:15:34.866Z,52.01
2018-04-30T01:16:34.683Z,52.11
2018-04-30T01:17:34.610Z,51.82
2018-04-30T01:18:34.702Z,52.20
2018-04-30T01:19:34.587Z,52.30
2018-04-30T01:20:34.668Z,52.30
2018-04-30T01:21:35.169Z,52.47
2018-04-30T01:22:34.556Z,52.09
2018-04-30T01:23:34.543Z,52.30
2018-04-30T01:24:34.421Z,52.30
2018-04-30T01:25:34.482Z,51.89
2018-04-30T01:26:34.463Z,51.82
2018-04-30T01:27:34.381Z,52.30
2018-04-30T01:28:34.220Z,52.20
2018-04-30T01:29:34.170Z,52.20
2018-04-30T01:30:34.120Z,52.28
2018-04-30T01:31:34.106Z,52.56
2018-04-30T01:32:34.058Z,52.30
2018-04-30T01:33:34.100Z,51.82
2018-04-30T01:34:34.035Z,52.11
2018-04-30T01:35:33.930Z,52.47
2018-04-30T01:36:33.983Z,52.97
2018-04-30T01:37:33.939Z,52.94
2018-04-30T01:38:33.892Z,52.68
2018-04-30T01:39:33.847Z,52.78
2018-04-30T01:40:33.779Z,52.66
2018-04-30T01:41:33.819Z,52.84
2018-04-30T01:42:33.718Z,52.84
2018-04-30T01:43:33.703Z,52.78
2018-04-30T01:44:33.650Z,52.78
2018-04-30T01:45:33.625Z,52.97
2018-04-30T01:46:33.579Z,53.61
2018-04-30T01:47:33.489Z,53.61
2018-04-30T01:48:33.533Z,53.61
2018-04-30T01:49:33.574Z,53.80
2018-04-30T01:50:33.621Z,53.42
2018-04-30T01:51:33.612Z,54.18
2018-04-30T01:52:33.444Z,54.27
2018-04-30T01:53:33.360Z,54.27
2018-04-30T01:54:33.397Z,53.80
2018-04-30T01:55:34.397Z,54.37
2018-04-30T01:56:33.216Z,54.18
2018-04-30T01:57:33.230Z,54.56
2018-04-30T01:58:33.178Z,54.66
2018-04-30T01:59:33.069Z,54.56
2018-04-30T02:00:33.030Z,55.04
2018-04-30T02:01:32.990Z,54.66
2018-04-30T02:02:32.961Z,54.56
2018-04-30T02:03:32.949Z,55.39
2018-04-30T02:04:32.919Z,55.61
2018-04-30T02:05:32.935Z,55.22
2018-04-30T02:06:32.844Z,55.70
2018-04-30T02:07:32.793Z,55.61
2018-04-30T02:08:32.758Z,56.09
2018-04-30T02:09:32.675Z,55.51
2018-04-30T02:10:32.679Z,55.32
2018-04-30T02:11:32.600Z,56.18
2018-04-30T02:12:32.594Z,56.37
2018-04-30T02:13:32.562Z,56.72
2018-04-30T02:14:32.475Z,56.63
2018-04-30T02:15:32.463Z,56.44
2018-04-30T02:16:32.454Z,56.18
2018-04-30T02:17:32.506Z,56.75
2018-04-30T02:18:32.358Z,56.27
2018-04-30T02:19:32.377Z,56.65
2018-04-30T02:20:32.287Z,57.23
2018-04-30T02:21:32.289Z,56.82
2018-04-30T02:22:32.212Z,57.20
2018-04-30T02:23:32.172Z,57.42
2018-04-30T02:24:32.165Z,57.32
2018-04-30T02:25:32.215Z,57.60
2018-04-30T02:26:32.089Z,57.51
2018-04-30T02:27:32.033Z,57.87
2018-04-30T02:28:31.969Z,57.96
2018-04-30T02:29:31.915Z,57.42
2018-04-30T02:30:31.942Z,57.58
2018-04-30T02:31:31.906Z,57.77
2018-04-30T02:32:31.819Z,57.67
2018-04-30T02:33:31.925Z,58.15
2018-04-30T02:34:31.755Z,57.77
2018-04-30T02:35:31.728Z,58.15
2018-04-30T02:36:31.732Z,58.08
2018-04-30T02:37:31.643Z,59.10
2018-04-30T02:38:31.586Z,59.39
2018-04-30T02:39:31.522Z,58.81
2018-04-30T02:40:31.549Z,58.81
2018-04-30T02:41:31.457Z,59.29
2018-04-30T02:42:31.425Z,58.91
2018-04-30T02:43:31.392Z,59.67
2018-04-30T02:44:31.383Z,59.01
2018-04-30T02:45:31.341Z,59.01
2018-04-30T02:46:31.341Z,59.39
2018-04-30T02:47:31.219Z,58.72
2018-04-30T02:48:31.208Z,59.20
2018-04-30T02:49:31.165Z,59.58
2018-04-30T02:50:31.153Z,59.67
2018-04-30T02:51:31.070Z,59.74
2018-04-30T02:52:31.020Z,59.96
2018-04-30T02:53:31.026Z,59.77
2018-04-30T02:54:31.011Z,59.74
2018-04-30T02:55:30.931Z,60.31
2018-04-30T02:56:30.887Z,59.86
2018-04-30T02:57:30.974Z,59.48
2018-04-30T02:58:30.857Z,59.77
2018-04-30T02:59:30.817Z,60.05
2018-04-30T03:00:32.271Z,60.82
2018-04-30T03:01:30.733Z,60.44
2018-04-30T03:02:30.680Z,60.34
2018-04-30T03:03:30.615Z,60.60
2018-04-30T03:04:30.575Z,60.63
2018-04-30T03:05:30.616Z,60.88
2018-04-30T03:06:30.542Z,60.05
2018-04-30T03:07:30.454Z,61.26
2018-04-30T03:08:30.442Z,60.72
2018-04-30T03:09:30.428Z,60.44
2018-04-30T03:10:30.356Z,61.07
2018-04-30T03:11:30.356Z,60.63
2018-04-30T03:12:30.338Z,60.91
2018-04-30T03:13:30.227Z,60.82
2018-04-30T03:14:30.284Z,60.82
2018-04-30T03:15:30.183Z,60.72
2018-04-30T03:16:30.214Z,60.34
2018-04-30T03:17:30.166Z,61.58
2018-04-30T03:18:30.061Z,60.53
2018-04-30T03:19:30.034Z,60.72
2018-04-30T03:20:29.996Z,61.19
2018-04-30T03:21:29.966Z,61.38
2018-04-30T03:22:29.903Z,60.18
2018-04-30T03:23:29.850Z,61.04
2018-04-30T03:24:29.866Z,61.48
2018-04-30T03:25:29.813Z,61.67
2018-04-30T03:26:29.772Z,61.58
2018-04-30T03:27:29.709Z,61.00
2018-04-30T03:28:29.686Z,60.85
2018-04-30T03:29:29.609Z,60.85
2018-04-30T03:30:29.572Z,61.67
2018-04-30T03:31:29.542Z,61.00
2018-04-30T03:32:29.547Z,61.29
2018-04-30T03:33:29.491Z,61.48
2018-04-30T03:34:29.453Z,61.22
2018-04-30T03:35:29.368Z,61.42
2018-04-30T03:36:29.356Z,61.29
2018-04-30T03:37:29.309Z,62.15
2018-04-30T03:38:29.271Z,61.96
2018-04-30T03:39:30.208Z,61.38
2018-04-30T03:40:29.197Z,61.96
2018-04-30T03:41:29.184Z,61.67
2018-04-30T03:42:29.127Z,62.15
2018-04-30T03:43:29.087Z,61.80
2018-04-30T03:44:29.086Z,61.80
2018-04-30T03:45:29.075Z,60.85
2018-04-30T03:46:28.976Z,60.46
2018-04-30T03:47:28.919Z,61.51
2018-04-30T03:48:28.880Z,61.22
2018-04-30T03:49:28.908Z,61.35
2018-04-30T03:50:28.815Z,61.42
2018-04-30T03:51:28.770Z,61.51
2018-04-30T03:52:28.716Z,61.61
2018-04-30T03:53:28.702Z,61.22
2018-04-30T03:54:28.691Z,61.61
2018-04-30T03:55:28.612Z,61.70
2018-04-30T03:56:28.583Z,61.51
2018-04-30T03:57:28.576Z,61.04
2018-04-30T03:58:30.283Z,61.32
2018-04-30T03:59:28.530Z,61.42
2018-04-30T04:00:28.419Z,61.51
2018-04-30T04:01:28.424Z,61.51
2018-04-30T04:02:28.345Z,61.51
2018-04-30T04:03:28.446Z,61.61
2018-04-30T04:04:28.281Z,61.13
2018-04-30T04:05:28.290Z,61.04
2018-04-30T04:06:28.219Z,60.97
2018-04-30T04:07:28.176Z,61.07
2018-04-30T04:08:28.129Z,61.07
2018-04-30T04:09:28.094Z,60.59
2018-04-30T04:10:28.285Z,60.69
2018-04-30T04:11:28.074Z,60.88
2018-04-30T04:12:27.991Z,60.21
2018-04-30T04:13:27.932Z,60.40
2018-04-30T04:14:27.905Z,60.49
2018-04-30T04:15:27.872Z,59.67
2018-04-30T04:16:27.902Z,59.19
2018-04-30T04:17:27.806Z,58.75
2018-04-30T04:18:27.767Z,58.65
2018-04-30T04:19:27.724Z,58.84
2018-04-30T04:20:27.696Z,58.84
2018-04-30T04:21:27.634Z,58.17
2018-04-30T04:22:27.592Z,56.84
2018-04-30T04:23:27.553Z,55.41
2018-04-30T04:24:27.609Z,54.07
2018-04-30T04:25:27.497Z,53.31
2018-04-30T04:26:27.431Z,52.73
2018-04-30T04:27:27.407Z,51.04
2018-04-30T04:28:27.384Z,49.54
2018-04-30T04:29:27.333Z,56.04
2018-04-30T04:30:27.304Z,70.39
2018-04-30T04:31:27.269Z,99.99
2018-04-30T04:32:27.293Z,97.42
2018-04-30T04:33:27.268Z,99.99
2018-04-30T04:34:27.162Z,99.99
2018-04-30T04:35:27.135Z,99.99
2018-04-30T04:36:27.088Z,99.99
2018-04-30T04:37:27.045Z,99.99
2018-04-30T04:38:27.009Z,99.99
2018-04-30T04:39:26.982Z,99.99
2018-04-30T04:40:26.968Z,99.99
2018-04-30T04:41:26.923Z,99.99
2018-04-30T04:42:26.919Z,99.99
2018-04-30T04:43:26.963Z,99.99
2018-04-30T04:44:26.915Z,99.99
2018-04-30T04:45:27.416Z,99.99
2018-04-30T04:46:26.864Z,99.99
2018-04-30T04:47:26.716Z,99.99
2018-04-30T04:48:26.660Z,99.99
2018-04-30T04:49:26.674Z,99.99
2018-04-30T04:50:26.575Z,99.99
2018-04-30T04:51:26.602Z,99.99
2018-04-30T04:52:26.587Z,99.99
2018-04-30T04:53:26.473Z,99.99
2018-04-30T04:54:29.420Z,99.99
2018-04-30T04:55:26.456Z,99.99
2018-04-30T04:56:26.387Z,99.99
2018-04-30T04:57:26.478Z,99.99
2018-04-30T04:58:26.462Z,99.99
2018-04-30T04:59:26.296Z,99.99
2018-04-30T05:00:26.213Z,99.99
2018-04-30T05:01:26.220Z,99.99
2018-04-30T05:02:26.378Z,99.99
2018-04-30T05:03:26.143Z,99.99
2018-04-30T05:04:26.217Z,99.99
2018-04-30T05:05:26.080Z,99.99
2018-04-30T05:06:26.065Z,99.99
2018-04-30T05:07:26.055Z,99.99
2018-04-30T05:08:26.020Z,99.99
2018-04-30T05:09:25.906Z,99.99
2018-04-30T05:10:25.882Z,99.99
2018-04-30T05:11:25.912Z,99.99
2018-04-30T05:12:25.950Z,99.99
2018-04-30T05:13:25.953Z,99.99
2018-04-30T05:14:25.734Z,99.99
2018-04-30T05:15:25.729Z,99.99
2018-04-30T05:16:25.731Z,99.99
2018-04-30T05:17:25.658Z,99.99
2018-04-30T05:18:25.634Z,99.99
2018-04-30T05:19:25.615Z,99.99
2018-04-30T05:20:25.648Z,99.99
2018-04-30T05:21:25.583Z,99.99
2018-04-30T05:22:25.527Z,99.99
2018-04-30T05:23:25.551Z,99.99
2018-04-30T05:24:25.408Z,99.99
2018-04-30T05:25:25.362Z,99.99
2018-04-30T05:26:25.382Z,99.99
2018-04-30T05:27:25.357Z,99.99
2018-04-30T05:28:25.337Z,99.99
2018-04-30T05:29:25.263Z,99.99
2018-04-30T05:30:25.199Z,99.99
2018-04-30T05:31:25.237Z,99.99
2018-04-30T05:32:25.189Z,99.99
2018-04-30T05:33:25.127Z,99.99
2018-04-30T05:34:25.095Z,99.99
2018-04-30T05:35:25.041Z,99.99
2018-04-30T05:36:25.051Z,99.99
2018-04-30T05:37:24.987Z,99.99
2018-04-30T05:38:24.986Z,99.99
2018-04-30T05:39:24.927Z,99.99
2018-04-30T05:40:24.969Z,99.99
2018-04-30T05:41:24.860Z,99.99
2018-04-30T05:42:24.827Z,99.99
2018-04-30T05:43:24.885Z,99.99
2018-04-30T05:44:24.751Z,99.99
2018-04-30T05:45:24.847Z,99.99
2018-04-30T05:46:24.705Z,99.99
2018-04-30T05:47:24.705Z,99.99
2018-04-30T05:48:24.629Z,99.40
2018-04-30T05:49:24.589Z,99.99
2018-04-30T05:50:24.578Z,99.78
2018-04-30T05:51:24.520Z,98.72
2018-04-30T05:52:24.512Z,99.99
2018-04-30T05:53:24.453Z,99.99
2018-04-30T05:54:24.429Z,99.99
2018-04-30T05:55:24.439Z,99.99
2018-04-30T05:56:24.375Z,99.99
2018-04-30T05:57:24.369Z,99.99
2018-04-30T05:58:24.304Z,99.99
2018-04-30T05:59:24.278Z,99.99
2018-04-30T06:00:24.300Z,99.99
2018-04-30T06:01:24.214Z,99.99
2018-04-30T06:02:24.162Z,99.99
2018-04-30T06:03:24.248Z,99.99
2018-04-30T06:04:24.121Z,99.99
2018-04-30T06:05:24.110Z,99.99
2018-04-30T06:06:24.079Z,99.99
2018-04-30T06:07:24.022Z,99.99
2018-04-30T06:08:24.026Z,99.99
2018-04-30T06:09:23.982Z,99.99
2018-04-30T06:10:23.958Z,99.99
2018-04-30T06:11:23.898Z,99.99
2018-04-30T06:12:23.886Z,99.99
2018-04-30T06:13:23.842Z,99.99
2018-04-30T06:14:23.797Z,99.99
2018-04-30T06:15:23.782Z,99.99
2018-04-30T06:16:23.755Z,99.99
2018-04-30T06:17:23.706Z,99.99
2018-04-30T06:18:23.667Z,99.99
2018-04-30T06:19:23.660Z,99.99
2018-04-30T06:20:23.627Z,99.99
2018-04-30T06:21:23.603Z,99.99
2018-04-30T06:22:23.546Z,99.99
2018-04-30T06:23:23.521Z,99.99
2018-04-30T06:24:23.512Z,99.99
2018-04-30T06:25:23.452Z,99.99
2018-04-30T06:26:23.442Z,99.99
2018-04-30T06:27:23.405Z,99.99
2018-04-30T06:28:23.460Z,99.99
2018-04-30T06:29:23.318Z,99.99
2018-04-30T06:30:23.304Z,99.99
2018-04-30T06:31:23.273Z,99.99
2018-04-30T06:32:23.248Z,99.99
2018-04-30T06:33:23.223Z,99.39
2018-04-30T06:34:23.163Z,99.99
2018-04-30T06:35:23.165Z,99.99
2018-04-30T06:36:23.116Z,99.99
2018-04-30T06:37:23.076Z,99.99
2018-04-30T06:38:23.085Z,99.99
2018-04-30T06:39:23.018Z,99.99
2018-04-30T06:40:22.978Z,99.99
2018-04-30T06:41:22.977Z,99.24
2018-04-30T06:42:22.944Z,99.99
2018-04-30T06:43:22.925Z,98.62
2018-04-30T06:44:22.862Z,97.28
2018-04-30T06:45:22.829Z,96.08
2018-04-30T06:46:22.821Z,95.36
2018-04-30T06:47:22.802Z,95.26
2018-04-30T06:48:22.732Z,94.07
2018-04-30T06:49:22.711Z,93.10
2018-04-30T06:50:22.710Z,91.42
2018-04-30T06:51:22.654Z,90.75
2018-04-30T06:52:22.626Z,87.23
2018-04-30T06:53:22.600Z,85.13
2018-04-30T06:54:22.545Z,85.66
2018-04-30T06:55:22.511Z,89.01
2018-04-30T06:56:22.491Z,88.20
2018-04-30T06:57:22.452Z,86.52
2018-04-30T06:58:22.567Z,88.69
2018-04-30T06:59:22.392Z,89.17
2018-04-30T07:00:22.491Z,88.31
2018-04-30T07:01:22.325Z,88.31
2018-04-30T07:02:22.305Z,88.07
2018-04-30T07:03:22.262Z,88.17
2018-04-30T07:04:22.256Z,87.93
2018-04-30T07:05:22.220Z,89.47
2018-04-30T07:06:22.283Z,89.41
2018-04-30T07:07:22.180Z,88.41
2018-04-30T07:08:22.126Z,89.36
2018-04-30T07:09:22.358Z,87.15
2018-04-30T07:10:22.090Z,85.52
2018-04-30T07:11:22.270Z,86.63
2018-04-30T07:12:21.993Z,86.10
2018-04-30T07:13:21.981Z,85.42
2018-04-30T07:14:21.945Z,85.14
2018-04-30T07:15:21.930Z,83.41
2018-04-30T07:16:21.906Z,85.19
2018-04-30T07:17:21.845Z,85.67
2018-04-30T07:18:21.830Z,85.10
2018-04-30T07:19:21.821Z,84.52
2018-04-30T07:20:21.751Z,86.21
2018-04-30T07:21:21.758Z,86.54
2018-04-30T07:22:21.708Z,85.58
2018-04-30T07:23:21.685Z,84.91
2018-04-30T07:24:21.663Z,83.51
2018-04-30T07:25:21.624Z,84.52
2018-04-30T07:26:21.594Z,84.81
2018-04-30T07:27:21.697Z,86.77
2018-04-30T07:28:21.536Z,84.61
2018-04-30T07:29:22.179Z,85.91
2018-04-30T07:30:21.496Z,83.94
2018-04-30T07:31:21.459Z,83.70
2018-04-30T07:32:21.499Z,82.54
2018-04-30T07:33:21.534Z,80.63
2018-04-30T07:34:21.355Z,80.19
2018-04-30T07:35:21.341Z,78.34
2018-04-30T07:36:21.330Z,77.83
2018-04-30T07:37:21.497Z,77.21
2018-04-30T07:38:21.566Z,77.40
2018-04-30T07:39:21.247Z,77.11
2018-04-30T07:40:21.373Z,78.03
2018-04-30T07:41:21.144Z,78.57
2018-04-30T07:42:21.179Z,78.28
2018-04-30T07:43:21.073Z,78.38
2018-04-30T07:44:21.050Z,79.44
2018-04-30T07:45:21.084Z,78.19
2018-04-30T07:46:21.143Z,79.44
2018-04-30T07:47:22.034Z,79.78
2018-04-30T07:48:20.934Z,78.57
2018-04-30T07:49:20.961Z,77.71
2018-04-30T07:50:20.905Z,77.33
2018-04-30T07:51:20.854Z,78.96
2018-04-30T07:52:20.821Z,78.47
2018-04-30T07:53:20.828Z,79.14
2018-04-30T07:54:20.858Z,77.75
2018-04-30T07:55:20.737Z,78.19
2018-04-30T07:56:20.703Z,78.28
2018-04-30T07:57:20.683Z,75.70
2018-04-30T07:58:20.696Z,75.40
2018-04-30T07:59:20.660Z,76.21
2018-04-30T08:00:20.621Z,74.73
2018-04-30T08:01:20.618Z,76.37
2018-04-30T08:02:20.581Z,76.37
2018-04-30T08:03:20.536Z,74.83
2018-04-30T08:04:20.574Z,76.94
2018-04-30T08:05:21.280Z,77.23
2018-04-30T08:06:20.419Z,75.70
2018-04-30T08:07:20.548Z,74.64
2018-04-30T08:08:20.351Z,75.15
2018-04-30T08:09:20.384Z,75.70
2018-04-30T08:10:20.296Z,76.62
2018-04-30T08:11:20.313Z,76.52
2018-04-30T08:12:20.318Z,76.17
2018-04-30T08:13:20.200Z,78.44
2018-04-30T08:14:20.366Z,79.24
2018-04-30T08:15:20.148Z,75.12
2018-04-30T08:16:20.089Z,73.33
2018-04-30T08:17:20.047Z,73.14
2018-04-30T08:18:20.027Z,74.06
2018-04-30T08:19:20.039Z,76.46
2018-04-30T08:20:19.998Z,78.77
2018-04-30T08:21:19.968Z,76.71
2018-04-30T08:22:20.011Z,78.53
2018-04-30T08:23:20.011Z,80.41
2018-04-30T08:24:19.855Z,77.95
2018-04-30T08:25:19.816Z,76.62
2018-04-30T08:26:19.804Z,75.79
2018-04-30T08:27:19.859Z,74.60
2018-04-30T08:28:19.762Z,74.62
2018-04-30T08:29:19.708Z,72.05
2018-04-30T08:30:19.672Z,74.19
2018-04-30T08:31:19.688Z,74.04
2018-04-30T08:32:19.631Z,75.92
2018-04-30T08:33:19.583Z,76.40
2018-04-30T08:34:19.587Z,75.57
2018-04-30T08:35:19.517Z,73.18
2018-04-30T08:36:19.482Z,71.83
2018-04-30T08:37:19.503Z,73.11
2018-04-30T08:38:19.487Z,71.71
2018-04-30T08:39:19.436Z,68.60
2018-04-30T08:40:19.375Z,66.01
2018-04-30T08:41:20.301Z,66.88
2018-04-30T08:42:19.329Z,64.63
2018-04-30T08:43:19.335Z,66.97
2018-04-30T08:44:19.307Z,67.93
2018-04-30T08:45:19.239Z,69.59
2018-04-30T08:46:19.219Z,69.43
2018-04-30T08:47:19.273Z,67.16
2018-04-30T08:48:19.159Z,62.28
2018-04-30T08:49:19.111Z,57.48
2018-04-30T08:50:19.099Z,58.19
2018-04-30T08:51:19.067Z,58.88
2018-04-30T08:52:19.124Z,60.46
2018-04-30T08:53:19.084Z,64.37
2018-04-30T08:54:18.977Z,62.99
2018-04-30T08:55:18.989Z,64.34
2018-04-30T08:56:18.925Z,65.05
2018-04-30T08:57:18.929Z,65.05
2018-04-30T08:58:18.968Z,66.58
2018-04-30T08:59:18.896Z,65.69
2018-04-30T09:00:18.891Z,65.59
2018-04-30T09:01:18.799Z,66.04
2018-04-30T09:02:18.800Z,64.76
2018-04-30T09:03:18.761Z,66.71
2018-04-30T09:04:18.730Z,65.69
2018-04-30T09:05:18.685Z,63.38
2018-04-30T09:06:18.669Z,67.09
2018-04-30T09:07:18.665Z,62.74
2018-04-30T09:08:18.653Z,63.38
2018-04-30T09:09:18.586Z,64.63
2018-04-30T09:10:18.550Z,63.92
2018-04-30T09:11:18.541Z,64.31
2018-04-30T09:12:18.481Z,62.87
2018-04-30T09:13:18.474Z,61.01
2018-04-30T09:14:18.453Z,62.29
2018-04-30T09:15:18.415Z,62.42
2018-04-30T09:16:18.384Z,59.82
2018-04-30T09:17:18.350Z,56.66
2018-04-30T09:18:18.347Z,53.59
2018-04-30T09:19:18.359Z,55.09
2018-04-30T09:20:18.366Z,55.12
2018-04-30T09:21:18.357Z,55.70
2018-04-30T09:22:18.250Z,56.98
2018-04-30T09:23:18.239Z,52.86
2018-04-30T09:24:18.180Z,52.91
2018-04-30T09:25:18.171Z,53.67
2018-04-30T09:26:18.183Z,54.21
2018-04-30T09:27:18.171Z,53.58
2018-04-30T09:28:18.130Z,54.32
2018-04-30T09:29:18.166Z,54.17
2018-04-30T09:30:18.015Z,57.29
2018-04-30T09:31:17.976Z,56.07
2018-04-30T09:32:17.964Z,58.09
2018-04-30T09:33:17.921Z,56.33
2018-04-30T09:34:17.937Z,59.22
2018-04-30T09:35:17.890Z,57.14
2018-04-30T09:36:17.855Z,58.94
2018-04-30T09:37:17.827Z,60.15
2018-04-30T09:38:17.804Z,62.26
2018-04-30T09:39:17.794Z,62.55
2018-04-30T09:40:17.753Z,62.23
2018-04-30T09:41:17.881Z,61.75
2018-04-30T09:42:17.756Z,61.46
2018-04-30T09:43:17.694Z,62.74
2018-04-30T09:44:17.652Z,62.26
2018-04-30T09:45:17.658Z,61.85
2018-04-30T09:46:17.619Z,63.76
2018-04-30T09:47:17.688Z,64.18
2018-04-30T09:48:17.572Z,65.23
2018-04-30T09:49:17.645Z,62.84
2018-04-30T09:50:17.530Z,64.22
2018-04-30T09:51:17.498Z,64.59
2018-04-30T09:52:17.420Z,64.56
2018-04-30T09:53:17.526Z,63.06
2018-04-30T09:54:17.388Z,63.73
2018-04-30T09:55:17.351Z,62.77
2018-04-30T09:56:17.324Z,62.10
2018-04-30T09:57:17.445Z,63.03
2018-04-30T09:58:17.278Z,64.28
2018-04-30T09:59:17.251Z,65.14
2018-04-30T10:00:17.246Z,65.62
2018-04-30T10:01:17.197Z,65.05
2018-04-30T10:02:17.172Z,64.53
2018-04-30T10:03:17.147Z,64.34
2018-04-30T10:04:17.114Z,66.51
2018-04-30T10:05:17.048Z,65.78
2018-04-30T10:06:17.024Z,66.67
2018-04-30T10:07:17.065Z,65.20
2018-04-30T10:08:16.979Z,66.49
2018-04-30T10:09:16.938Z,62.87
2018-04-30T10:10:16.920Z,61.25
2018-04-30T10:11:16.887Z,57.99
2018-04-30T10:12:16.872Z,56.91
2018-04-30T10:13:16.841Z,59.15
2018-04-30T10:14:16.853Z,57.37
2018-04-30T10:15:16.823Z,58.22
2018-04-30T10:16:16.739Z,58.50
2018-04-30T10:17:16.941Z,57.28
2018-04-30T10:18:16.699Z,57.92
2018-04-30T10:19:16.664Z,57.77
2018-04-30T10:20:16.620Z,60.82
2018-04-30T10:21:16.628Z,60.08
2018-04-30T10:22:16.583Z,59.01
2018-04-30T10:23:16.681Z,57.69
2018-04-30T10:24:16.743Z,57.57
2018-04-30T10:25:16.488Z,58.57
2018-04-30T10:26:16.564Z,60.33
2018-04-30T10:27:16.735Z,58.86
2018-04-30T10:28:16.488Z,59.34
2018-04-30T10:29:16.397Z,58.05
2018-04-30T10:30:16.370Z,59.24
2018-04-30T10:31:16.401Z,59.31
2018-04-30T10:32:16.337Z,58.86
2018-04-30T10:33:16.607Z,57.28
2018-04-30T10:34:16.285Z,56.55
2018-04-30T10:35:16.317Z,59.24
2018-04-30T10:36:16.215Z,59.72
2018-04-30T10:37:16.194Z,64.37
2018-04-30T10:38:16.388Z,58.80
2018-04-30T10:39:16.194Z,61.17
2018-04-30T10:40:16.158Z,61.05
2018-04-30T10:41:16.148Z,61.55
2018-04-30T10:42:16.089Z,61.17
2018-04-30T10:43:16.041Z,61.30
2018-04-30T10:44:16.066Z,61.52
2018-04-30T10:45:16.015Z,64.31
2018-04-30T10:46:15.982Z,63.64
2018-04-30T10:47:15.936Z,60.28
2018-04-30T10:48:15.943Z,62.13
2018-04-30T10:49:15.915Z,61.40
2018-04-30T10:50:15.899Z,62.36
2018-04-30T10:51:15.862Z,62.29
2018-04-30T10:52:15.801Z,60.88
2018-04-30T10:53:15.800Z,60.82
2018-04-30T10:54:15.787Z,59.66
2018-04-30T10:55:15.718Z,58.99
2018-04-30T10:56:15.679Z,57.87
2018-04-30T10:57:15.659Z,56.23
2018-04-30T10:58:15.636Z,56.38
2018-04-30T10:59:15.632Z,56.32
2018-04-30T11:00:15.665Z,55.60
2018-04-30T11:01:15.576Z,55.49
2018-04-30T11:02:15.531Z,53.43
2018-04-30T11:03:15.512Z,55.20
2018-04-30T11:04:15.497Z,55.56
2018-04-30T11:05:15.456Z,57.99
2018-04-30T11:06:15.498Z,54.91
2018-04-30T11:07:15.409Z,54.91
2018-04-30T11:08:15.393Z,56.14
2018-04-30T11:09:15.339Z,55.76
2018-04-30T11:10:15.331Z,55.56
2018-04-30T11:11:15.338Z,56.91
2018-04-30T11:12:15.276Z,55.45
2018-04-30T11:13:15.256Z,52.85
2018-04-30T11:14:15.227Z,54.10
2018-04-30T11:15:15.238Z,54.14
2018-04-30T11:16:15.188Z,55.23
2018-04-30T11:17:15.153Z,55.43
2018-04-30T11:18:15.140Z,55.83
2018-04-30T11:19:15.104Z,54.30
2018-04-30T11:20:15.135Z,53.36
2018-04-30T11:21:15.062Z,53.43
2018-04-30T11:22:15.010Z,52.83
2018-04-30T11:23:15.008Z,54.42
2018-04-30T11:24:15.036Z,53.96
2018-04-30T11:25:14.939Z,53.03
2018-04-30T11:26:14.914Z,52.18
2018-04-30T11:27:14.918Z,54.10
2018-04-30T11:28:14.895Z,54.71
2018-04-30T11:29:14.839Z,53.45
2018-04-30T11:30:14.860Z,53.02
2018-04-30T11:31:14.848Z,51.48
2018-04-30T11:32:14.776Z,54.68
2018-04-30T11:33:14.756Z,53.62
2018-04-30T11:34:14.778Z,53.35
2018-04-30T11:35:14.732Z,55.89
2018-04-30T11:36:14.688Z,56.15
2018-04-30T11:37:14.698Z,56.59
2018-04-30T11:38:14.684Z,56.91
2018-04-30T11:39:14.598Z,56.00
2018-04-30T11:40:14.565Z,55.33
2018-04-30T11:41:14.620Z,52.92
2018-04-30T11:42:14.523Z,52.83
2018-04-30T11:43:14.517Z,53.96
2018-04-30T11:44:14.491Z,54.28
2018-04-30T11:45:14.474Z,55.02
2018-04-30T11:46:14.563Z,56.62
2018-04-30T11:47:15.822Z,55.68
2018-04-30T11:48:14.403Z,55.30
2018-04-30T11:49:14.405Z,55.85
2018-04-30T11:50:14.398Z,56.07
2018-04-30T11:51:14.325Z,54.97
2018-04-30T11:52:14.261Z,54.17
2018-04-30T11:53:14.268Z,52.73
2018-04-30T11:54:14.240Z,53.69
2018-04-30T11:55:14.200Z,53.40
2018-04-30T11:56:14.170Z,54.14
2018-04-30T11:57:14.148Z,53.69
2018-04-30T11:58:14.153Z,54.36
2018-04-30T11:59:14.085Z,53.66
2018-04-30T12:00:14.069Z,55.40
2018-04-30T12:01:14.057Z,54.53
2018-04-30T12:02:14.112Z,54.41
2018-04-30T12:03:13.995Z,54.02
2018-04-30T12:04:13.964Z,54.63
2018-04-30T12:05:13.938Z,54.14
2018-04-30T12:06:14.016Z,56.45
2018-04-30T12:07:13.883Z,56.65
2018-04-30T12:08:13.927Z,55.27
2018-04-30T12:09:13.838Z,54.50
2018-04-30T12:10:13.835Z,54.02
2018-04-30T12:11:13.823Z,53.35
2018-04-30T12:12:13.758Z,54.34
2018-04-30T12:13:13.801Z,53.96
2018-04-30T12:14:13.762Z,54.24
2018-04-30T12:15:13.750Z,54.12
2018-04-30T12:16:13.672Z,54.31
2018-04-30T12:17:13.642Z,55.56
2018-04-30T12:18:13.641Z,54.89
2018-04-30T12:19:13.591Z,55.24
2018-04-30T12:20:16.841Z,55.40
2018-04-30T12:21:13.550Z,54.60
2018-04-30T12:22:13.549Z,53.92
2018-04-30T12:23:13.487Z,55.88
2018-04-30T12:24:13.474Z,52.58
2018-04-30T12:25:13.433Z,54.02
2018-04-30T12:26:13.433Z,53.92
2018-04-30T12:27:13.529Z,53.25
2018-04-30T12:28:13.487Z,52.48
2018-04-30T12:29:13.348Z,54.50
2018-04-30T12:30:13.353Z,52.80
2018-04-30T12:31:13.312Z,51.33
2018-04-30T12:32:13.260Z,53.96
2018-04-30T12:33:13.257Z,53.28
2018-04-30T12:34:13.287Z,52.22
2018-04-30T12:35:13.887Z,52.51
2018-04-30T12:36:13.216Z,53.40
2018-04-30T12:37:13.152Z,54.24
2018-04-30T12:38:13.111Z,50.81
2018-04-30T12:39:13.160Z,50.73
2018-04-30T12:40:13.060Z,51.19
2018-04-30T12:41:13.041Z,52.03
2018-04-30T12:42:13.027Z,51.76
2018-04-30T12:43:13.047Z,50.47
2018-04-30T12:44:12.997Z,51.05
2018-04-30T12:45:12.946Z,50.51
2018-04-30T12:46:12.975Z,51.29
2018-04-30T12:47:12.897Z,51.64
2018-04-30T12:48:12.901Z,53.11
2018-04-30T12:49:12.850Z,52.06
2018-04-30T12:50:12.836Z,53.69
2018-04-30T12:51:12.795Z,55.55
2018-04-30T12:52:12.823Z,53.05